Time;durP1;ratioP1;P1;durP2;ratioP2;P2;SDS_P1;SDS_P2;PMS_P1;PMS_P2;Temp;Humidity;BMP_temperature;BMP_pressure;BME280_temperature;BME280_humidity;BME280_pressure;Samples;Min_cycle;Max_cycle;Signal;HPM_P1;HPM_P2
2022/09/03 00:00:15;;;;;;;17.37;8.40;;;;;;;40.35;35.79;101333.16;5050862;28;20446;-76
2022/09/03 00:03:05;;;;;;;25.50;8.73;;;;;;;40.00;36.06;101338.34;5050580;28;20438;-75
2022/09/03 00:05:33;;;;;;;24.43;10.33;;;;;;;39.93;35.78;101330.66;5050330;28;20474;-76
2022/09/03 00:08:20;;;;;;;13.70;7.90;;;;;;;39.68;36.16;101331.25;5050570;28;20927;-75
2022/09/03 00:11:12;;;;;;;14.73;7.43;;;;;;;39.70;36.31;101329.81;5051815;28;20895;-75
2022/09/03 00:13:41;;;;;;;18.30;7.93;;;;;;;39.82;36.18;101325.75;5050292;28;20492;-75
2022/09/03 00:16:11;;;;;;;19.30;7.83;;;;;;;39.78;36.44;101324.75;5050311;28;20453;-76
2022/09/03 00:18:48;;;;;;;16.90;9.80;;;;;;;39.94;36.32;101321.38;5051761;28;20407;-75
2022/09/03 00:21:35;;;;;;;23.27;9.23;;;;;;;40.10;36.18;101316.41;5050260;28;20466;-75
2022/09/03 00:24:05;;;;;;;18.83;9.03;;;;;;;40.23;35.84;101312.00;5050264;28;20415;-76
2022/09/03 00:26:36;;;;;;;21.90;8.90;;;;;;;39.93;36.18;101316.25;5044551;28;20953;-75
2022/09/03 00:29:08;;;;;;;21.77;8.53;;;;;;;40.03;35.61;101321.44;5020891;28;20467;-76
2022/09/03 00:31:46;;;;;;;18.70;8.07;;;;;;;40.10;35.72;101321.84;5010775;28;20420;-75
2022/09/03 00:34:33;;;;;;;19.00;8.90;;;;;;;40.20;35.78;101316.13;5010709;28;20416;-75
2022/09/03 00:36:59;;;;;;;16.90;8.37;;;;;;;40.23;36.09;101310.09;5010411;28;20444;-73
2022/09/03 00:39:26;;;;;;;17.53;8.07;;;;;;;40.16;35.47;101308.94;5010655;28;20419;-75
2022/09/03 00:42:14;;;;;;;15.80;8.83;;;;;;;39.97;35.84;101301.75;5010587;28;20467;-75
2022/09/03 00:45:05;;;;;;;17.03;8.57;;;;;;;39.91;35.74;101307.63;5010494;28;20452;-75
2022/09/03 00:48:13;;;;;;;22.77;9.53;;;;;;;39.86;36.30;101299.59;5010657;28;20432;-73
2022/09/03 00:50:48;;;;;;;15.10;7.83;;;;;;;39.73;36.12;101293.91;5010794;28;20499;-75
2022/09/03 00:53:23;;;;;;;19.87;10.60;;;;;;;39.95;36.08;101289.56;5018951;28;20425;-75
2022/09/03 00:55:58;;;;;;;15.37;8.27;;;;;;;40.06;36.26;101288.25;5051424;28;20497;-75
2022/09/03 00:58:28;;;;;;;19.07;7.53;;;;;;;39.99;36.04;101287.84;5049963;28;20425;-75
2022/09/03 01:00:55;;;;;;;31.07;11.17;;;;;;;40.03;35.92;101288.84;5049972;28;20512;-74
2022/09/03 01:03:58;;;;;;;16.23;6.83;;;;;;;40.14;35.28;101282.03;5050081;28;20779;-75
2022/09/03 01:06:36;;;;;;;24.57;10.50;;;;;;;39.91;35.89;101278.53;5053624;28;20478;-75
2022/09/03 01:09:14;;;;;;;15.90;8.13;;;;;;;39.94;36.30;101274.38;5053667;28;20403;-76
2022/09/03 01:11:55;;;;;;;11.47;7.50;;;;;;;39.92;36.02;101282.06;5054420;28;20771;-73
2022/09/03 01:14:49;;;;;;;18.07;8.23;;;;;;;39.49;36.70;101277.88;5053479;28;20465;-74
2022/09/03 01:17:17;;;;;;;12.33;7.60;;;;;;;39.63;36.24;101275.16;5053673;28;20920;-74
2022/09/03 01:19:50;;;;;;;22.87;8.73;;;;;;;40.01;35.70;101267.41;5054666;28;20449;-75
2022/09/03 01:22:27;;;;;;;20.23;9.23;;;;;;;40.08;35.72;101263.47;5053472;28;20536;-75
2022/09/03 01:25:01;;;;;;;16.23;9.03;;;;;;;39.70;36.30;101272.00;5053251;28;20503;-74
2022/09/03 01:27:43;;;;;;;16.40;8.27;;;;;;;39.71;36.54;101266.25;5053386;28;20849;-73
2022/09/03 01:30:17;;;;;;;17.50;7.87;;;;;;;39.26;37.23;101259.16;5053146;28;20469;-74
2022/09/03 01:33:02;;;;;;;14.67;7.63;;;;;;;39.65;36.75;101256.63;5053359;28;20424;-73
2022/09/03 01:35:47;;;;;;;34.87;10.40;;;;;;;39.91;36.29;101248.66;5053258;28;20426;-75
2022/09/03 01:38:31;;;;;;;24.43;9.17;;;;;;;39.94;36.39;101247.22;5053131;28;20502;-74
2022/09/03 01:44:31;;;;;;;23.57;7.80;;;;;;;40.01;36.37;101247.59;5054307;28;20804;-73
2022/09/03 01:47:38;;;;;;;20.13;9.23;;;;;;;40.08;35.92;101247.16;5054437;28;20461;-76
2022/09/03 01:50:09;;;;;;;23.57;9.03;;;;;;;39.90;36.51;101247.06;5052179;28;20460;-76
2022/09/03 01:52:44;;;;;;;14.40;7.63;;;;;;;40.04;35.64;101247.00;5052936;28;20410;-75
2022/09/03 01:55:22;;;;;;;19.83;9.20;;;;;;;40.00;35.82;101254.94;5052854;28;20453;-75
2022/09/03 01:58:01;;;;;;;17.20;8.53;;;;;;;39.82;35.88;101255.13;5052754;28;20414;-76
2022/09/03 02:00:31;;;;;;;23.33;12.23;;;;;;;39.89;36.08;101245.44;5052602;28;20913;-76
2022/09/03 02:03:04;;;;;;;50.27;9.53;;;;;;;39.92;36.13;101249.47;5052766;28;20434;-75
2022/09/03 02:05:30;;;;;;;19.03;8.57;;;;;;;40.17;35.63;101250.75;5052448;28;20856;-73
2022/09/03 02:08:00;;;;;;;23.13;8.87;;;;;;;40.07;36.12;101246.38;5052685;28;20415;-75
2022/09/03 02:10:37;;;;;;;20.40;8.20;;;;;;;40.19;35.78;101243.88;5052617;28;20415;-75
2022/09/03 02:13:15;;;;;;;25.40;9.37;;;;;;;39.78;36.30;101257.69;5052260;28;20438;-76
2022/09/03 02:15:47;;;;;;;18.70;9.00;;;;;;;39.87;36.15;101253.09;5051784;28;20802;-75
2022/09/03 02:18:20;;;;;;;12.67;7.27;;;;;;;40.03;35.97;101251.59;5052304;28;20870;-75
2022/09/03 02:20:49;;;;;;;14.27;8.70;;;;;;;39.75;36.64;101261.81;5052264;28;20490;-75
2022/09/03 02:23:15;;;;;;;25.07;8.43;;;;;;;39.61;36.51;101260.28;5053735;28;20426;-75
2022/09/03 02:25:46;;;;;;;22.60;9.17;;;;;;;39.61;36.65;101252.94;5052324;28;20833;-75
2022/09/03 02:28:14;;;;;;;17.13;7.80;;;;;;;39.76;36.51;101257.19;5035746;28;21002;-76
2022/09/03 02:30:41;;;;;;;15.27;10.83;;;;;;;39.86;36.38;101251.50;5013940;28;20451;-75
2022/09/03 02:33:07;;;;;;;23.33;9.63;;;;;;;39.87;36.77;101244.94;5012422;28;20424;-74
2022/09/03 02:35:34;;;;;;;29.77;11.07;;;;;;;39.81;37.36;101248.09;5012412;28;20425;-74
2022/09/03 02:38:24;;;;;;;19.80;8.47;;;;;;;39.56;37.35;101247.59;5012254;28;20440;-75
2022/09/03 02:40:50;;;;;;;28.60;8.73;;;;;;;39.60;36.98;101247.78;5012241;28;20460;-75
2022/09/03 02:43:23;;;;;;;17.73;8.40;;;;;;;39.54;37.42;101241.69;5012250;28;20503;-75
2022/09/03 02:45:54;;;;;;;18.93;6.53;;;;;;;39.53;37.42;101226.47;5012205;28;20416;-73
2022/09/03 02:48:23;;;;;;;26.73;8.77;;;;;;;39.52;37.49;101230.31;5012081;28;20848;-74
2022/09/03 02:50:49;;;;;;;29.77;9.27;;;;;;;39.74;36.92;101222.19;5012334;28;20528;-75
2022/09/03 02:53:15;;;;;;;24.90;9.17;;;;;;;39.62;37.55;101219.25;5017708;28;20410;-75
2022/09/03 02:55:41;;;;;;;26.00;9.23;;;;;;;39.95;36.81;101218.94;5031795;28;20951;-75
2022/09/03 02:58:08;;;;;;;13.80;6.90;;;;;;;39.62;36.56;101223.88;5031986;28;20434;-76
2022/09/03 03:00:35;;;;;;;15.70;8.00;;;;;;;39.65;36.87;101215.88;5031529;28;20465;-75
2022/09/03 03:03:02;;;;;;;30.63;9.37;;;;;;;39.92;36.73;101225.00;5031698;28;20420;-75
2022/09/03 03:05:46;;;;;;;18.87;9.20;;;;;;;39.75;36.91;101223.78;5041672;28;20481;-75
2022/09/03 03:08:13;;;;;;;16.57;8.53;;;;;;;39.68;37.28;101226.16;5051534;28;20410;-76
2022/09/03 03:10:43;;;;;;;14.40;8.00;;;;;;;39.80;37.12;101236.44;5051360;28;20417;-75
2022/09/03 03:13:10;;;;;;;24.60;10.27;;;;;;;39.82;36.79;101223.34;5051373;28;20427;-75
2022/09/03 03:15:36;;;;;;;18.83;7.97;;;;;;;39.65;37.35;101237.63;5051403;28;20476;-75
2022/09/03 03:18:02;;;;;;;15.93;9.90;;;;;;;39.77;36.76;101237.06;5051304;28;20461;-76
2022/09/03 03:20:29;;;;;;;22.37;11.00;;;;;;;39.73;37.06;101245.03;5051241;28;20462;-75
2022/09/03 03:22:55;;;;;;;23.87;10.67;;;;;;;39.91;36.74;101247.88;5051217;28;20846;-73
2022/09/03 03:25:21;;;;;;;14.30;6.67;;;;;;;39.60;37.15;101243.19;5051221;28;20458;-73
2022/09/03 03:27:47;;;;;;;18.30;8.50;;;;;;;39.61;37.08;101254.84;5050546;28;20461;-75
2022/09/03 03:30:13;;;;;;;20.00;7.30;;;;;;;39.35;37.30;101255.44;5051025;28;20473;-76
2022/09/03 03:32:39;;;;;;;15.67;7.37;;;;;;;39.60;37.09;101253.22;5051146;28;20930;-76
2022/09/03 03:35:06;;;;;;;11.13;7.13;;;;;;;39.55;37.41;101256.06;5050996;28;20512;-75
2022/09/03 03:37:34;;;;;;;20.30;9.07;;;;;;;39.32;37.73;101252.50;5051059;28;20419;-75
2022/09/03 03:40:00;;;;;;;19.47;8.17;;;;;;;39.64;37.08;101254.22;5050902;28;20477;-73
2022/09/03 03:42:26;;;;;;;19.93;8.83;;;;;;;39.77;36.92;101261.50;5050780;28;20458;-75
2022/09/03 03:44:52;;;;;;;20.33;7.17;;;;;;;39.54;36.72;101255.25;5050874;28;20805;-76
2022/09/03 03:47:18;;;;;;;17.40;8.00;;;;;;;39.14;37.42;101263.19;5051062;28;20414;-75
2022/09/03 03:49:44;;;;;;;15.50;8.03;;;;;;;39.51;36.97;101266.72;5050752;28;20525;-75
2022/09/03 03:52:10;;;;;;;13.43;6.97;;;;;;;39.03;37.89;101271.84;5051168;28;20501;-75
2022/09/03 03:54:36;;;;;;;14.03;6.30;;;;;;;39.05;37.85;101266.94;5050574;28;20826;-73
2022/09/03 03:57:03;;;;;;;14.37;9.10;;;;;;;39.19;37.60;101273.97;5051893;28;20450;-76
2022/09/03 03:59:29;;;;;;;20.73;8.57;;;;;;;39.06;38.05;101276.66;5050655;28;20787;-75
2022/09/03 04:01:55;;;;;;;20.57;8.50;;;;;;;39.27;37.52;101277.03;5052182;28;20453;-76
2022/09/03 04:04:21;;;;;;;14.83;8.70;;;;;;;39.13;37.80;101279.78;5052639;28;20816;-75
2022/09/03 04:06:47;;;;;;;20.43;8.27;;;;;;;39.29;37.27;101282.97;5053876;28;20420;-75
2022/09/03 04:09:13;;;;;;;14.90;7.93;;;;;;;39.32;36.94;101282.38;5053749;28;20957;-75
2022/09/03 04:11:39;;;;;;;16.10;6.80;;;;;;;39.10;37.23;101294.75;5054096;28;20440;-75
2022/09/03 04:14:05;;;;;;;16.13;7.40;;;;;;;39.57;36.73;101281.78;5053569;28;20433;-75
2022/09/03 04:16:31;;;;;;;19.53;8.50;;;;;;;39.51;36.75;101288.44;5053759;28;20437;-75
2022/09/03 04:18:58;;;;;;;18.27;8.03;;;;;;;39.31;37.36;101280.75;5053719;28;20425;-76
2022/09/03 04:21:29;;;;;;;45.43;8.33;;;;;;;39.36;37.14;101295.03;5071576;28;20481;-75
2022/09/03 04:23:56;;;;;;;28.17;11.40;;;;;;;39.31;37.80;101302.47;5053664;28;20413;-74
2022/09/03 04:26:30;;;;;;;27.70;9.40;;;;;;;39.36;37.29;101283.38;5053524;28;20413;-75
2022/09/03 04:28:57;;;;;;;18.40;11.23;;;;;;;39.35;36.79;101298.03;5053757;28;20425;-75
2022/09/03 04:31:23;;;;;;;25.47;8.93;;;;;;;39.31;36.96;101299.75;5053429;28;20510;-74
2022/09/03 04:33:50;;;;;;;31.53;10.30;;;;;;;39.01;37.71;101296.56;5053621;28;20472;-75
2022/09/03 04:36:17;;;;;;;29.93;7.93;;;;;;;39.25;37.57;101298.28;5053646;28;20433;-73
2022/09/03 04:38:45;;;;;;;19.73;8.70;;;;;;;39.21;37.65;101295.34;5053677;28;20426;-75
2022/09/03 04:41:14;;;;;;;22.20;7.83;;;;;;;39.33;37.53;101292.91;5057525;28;20461;-75
2022/09/03 04:43:42;;;;;;;21.10;8.40;;;;;;;39.42;37.36;101298.44;5057524;28;20428;-75
2022/09/03 04:46:09;;;;;;;18.23;10.37;;;;;;;39.90;36.40;101304.13;5057603;28;20425;-75
2022/09/03 04:48:36;;;;;;;14.70;6.87;;;;;;;39.95;36.56;101311.31;5057202;28;20863;-75
2022/09/03 04:51:05;;;;;;;21.57;9.50;;;;;;;39.63;37.26;101309.66;5057642;28;20421;-75
2022/09/03 04:53:36;;;;;;;16.90;7.27;;;;;;;39.63;36.80;101307.72;5057225;28;20414;-75
2022/09/03 04:56:11;;;;;;;18.30;8.80;;;;;;;39.45;37.02;101311.38;5057335;28;20987;-75
2022/09/03 04:58:37;;;;;;;15.50;7.23;;;;;;;39.79;36.82;101310.09;5075231;28;20401;-75
2022/09/03 05:01:24;;;;;;;23.43;8.47;;;;;;;39.89;36.44;101313.34;5057524;28;20449;-75
2022/09/03 05:03:51;;;;;;;15.57;6.67;;;;;;;39.86;36.67;101311.25;5057108;28;20410;-75
2022/09/03 05:06:18;;;;;;;21.03;8.00;;;;;;;40.13;36.46;101318.50;5053535;28;20476;-76
2022/09/03 05:08:51;;;;;;;28.73;8.87;;;;;;;40.05;35.79;101321.97;5053054;28;20457;-76
2022/09/03 05:11:18;;;;;;;23.47;8.17;;;;;;;40.14;36.26;101325.53;5053652;28;20410;-76
2022/09/03 05:13:53;;;;;;;18.00;8.70;;;;;;;40.20;35.67;101327.00;5053798;28;20414;-75
2022/09/03 05:16:19;;;;;;;28.37;9.53;;;;;;;39.91;36.49;101337.50;5053543;28;20413;-73
2022/09/03 05:18:46;;;;;;;16.07;8.70;;;;;;;40.00;36.23;101339.16;5054944;28;20427;-74
2022/09/03 05:21:17;;;;;;;32.47;11.30;;;;;;;40.24;36.34;101340.78;5053434;28;20962;-74
2022/09/03 05:23:45;;;;;;;21.83;8.63;;;;;;;40.33;35.71;101346.25;5053662;28;20449;-75
2022/09/03 05:26:21;;;;;;;18.33;7.87;;;;;;;40.14;35.66;101351.91;5053384;28;20419;-75
2022/09/03 05:28:47;;;;;;;16.23;8.97;;;;;;;40.29;35.31;101360.47;5054755;28;20763;-75
2022/09/03 05:31:17;;;;;;;21.83;11.33;;;;;;;40.36;35.41;101361.97;5053320;28;20410;-75
2022/09/03 05:33:48;;;;;;;20.53;11.33;;;;;;;40.12;36.00;101365.00;5053351;28;20804;-75
2022/09/03 05:36:18;;;;;;;18.60;7.50;;;;;;;40.20;35.42;101362.31;5042553;28;20531;-74
2022/09/03 05:38:46;;;;;;;22.87;11.23;;;;;;;40.10;35.59;101359.88;5013587;28;20425;-75
2022/09/03 05:41:13;;;;;;;18.00;6.50;;;;;;;39.99;35.71;101361.22;5013375;28;20987;-74
2022/09/03 05:43:40;;;;;;;21.70;9.80;;;;;;;39.96;36.47;101356.38;5014708;28;20459;-74
2022/09/03 05:46:17;;;;;;;15.40;9.77;;;;;;;40.20;35.41;101359.59;5014636;28;20897;-74
2022/09/03 05:48:43;;;;;;;25.60;7.30;;;;;;;40.08;35.61;101361.28;5013139;28;20925;-74
2022/09/03 05:51:15;;;;;;;16.73;8.83;;;;;;;40.19;35.70;101358.00;5013599;28;20400;-74
2022/09/03 05:53:43;;;;;;;26.47;8.13;;;;;;;40.16;35.82;101355.94;5021809;28;20415;-74
2022/09/03 05:56:23;;;;;;;18.23;7.37;;;;;;;40.17;35.90;101368.41;5040051;28;20462;-74
2022/09/03 05:58:51;;;;;;;14.43;7.80;;;;;;;39.83;36.06;101368.09;5040221;28;20399;-74
2022/09/03 06:01:19;;;;;;;16.83;9.20;;;;;;;39.93;35.72;101376.03;5032494;28;20462;-74
2022/09/03 06:03:47;;;;;;;15.13;7.17;;;;;;;40.06;35.35;101374.38;5032680;28;20470;-74
2022/09/03 06:06:14;;;;;;;14.37;6.40;;;;;;;40.32;35.24;101378.06;5050138;28;20857;-73
2022/09/03 06:08:41;;;;;;;13.80;8.13;;;;;;;40.07;35.31;101384.13;5056021;28;20402;-75
2022/09/03 06:11:08;;;;;;;14.97;8.60;;;;;;;39.89;35.83;101381.25;5055878;28;20864;-74
2022/09/03 06:13:34;;;;;;;18.07;9.80;;;;;;;39.97;35.78;101385.97;5055829;28;20472;-76
2022/09/03 06:16:03;;;;;;;18.50;8.23;;;;;;;39.92;36.05;101390.72;5054613;28;20426;-72
2022/09/03 06:18:30;;;;;;;15.10;8.50;;;;;;;40.07;35.89;101393.09;5071070;28;20433;-73
2022/09/03 06:21:01;;;;;;;25.40;9.70;;;;;;;40.19;35.93;101395.25;5054931;28;20465;-78
2022/09/03 06:23:29;;;;;;;19.63;10.10;;;;;;;40.07;35.60;101397.72;5052678;28;20837;-78
2022/09/03 06:26:04;;;;;;;17.10;8.77;;;;;;;40.11;35.90;101398.72;5055236;28;20930;-73
2022/09/03 06:28:34;;;;;;;21.80;9.73;;;;;;;40.00;35.85;101409.00;5053311;28;20437;-75
2022/09/03 06:31:02;;;;;;;15.20;7.50;;;;;;;40.09;36.18;101412.63;5055165;28;20513;-72
2022/09/03 06:33:30;;;;;;;27.23;8.73;;;;;;;40.12;35.58;101422.88;5052771;28;20418;-75
2022/09/03 06:36:01;;;;;;;18.57;9.40;;;;;;;40.21;35.81;101426.47;5055030;28;20414;-72
2022/09/03 06:38:34;;;;;;;18.27;7.30;;;;;;;40.40;35.27;101429.00;5054826;28;20412;-72
2022/09/03 06:41:03;;;;;;;16.43;10.37;;;;;;;40.32;35.34;101439.78;5054947;28;20515;-72
2022/09/03 06:43:35;;;;;;;21.33;8.60;;;;;;;40.44;34.88;101437.31;5055101;28;20902;-73
2022/09/03 06:46:05;;;;;;;21.90;8.87;;;;;;;39.96;35.55;101438.72;5022016;28;20422;-73
2022/09/03 06:48:33;;;;;;;20.80;7.90;;;;;;;39.90;35.88;101436.38;5070086;28;20406;-71
2022/09/03 06:51:05;;;;;;;23.00;8.60;;;;;;;40.02;35.98;101442.09;5054713;28;20489;-72
2022/09/03 06:53:40;;;;;;;20.40;7.13;;;;;;;39.65;36.50;101440.47;5045400;28;20426;-72
2022/09/03 06:56:08;;;;;;;18.07;8.97;;;;;;;39.93;36.10;101449.38;5047320;28;20796;-71
2022/09/03 06:58:42;;;;;;;16.13;8.83;;;;;;;39.73;36.49;101451.44;5054317;28;20422;-73
2022/09/03 07:01:16;;;;;;;23.33;9.47;;;;;;;39.74;36.34;101455.75;5052995;28;21366;-71
2022/09/03 07:03:43;;;;;;;14.30;6.57;;;;;;;39.67;36.49;101470.88;5052446;28;20515;-71
2022/09/03 07:06:17;;;;;;;16.63;9.37;;;;;;;39.75;36.20;101462.00;5053789;28;20473;-71
2022/09/03 07:08:45;;;;;;;32.87;8.50;;;;;;;39.53;36.72;101476.25;5072033;28;20411;-73
2022/09/03 07:11:14;;;;;;;16.40;6.37;;;;;;;39.91;36.49;101474.13;5056399;28;20410;-72
2022/09/03 07:13:48;;;;;;;19.80;8.07;;;;;;;39.93;36.24;101476.53;5053984;28;20424;-72
2022/09/03 07:16:18;;;;;;;17.93;7.10;;;;;;;40.02;36.09;101475.53;5054684;28;20504;-72
2022/09/03 07:18:45;;;;;;;20.63;9.27;;;;;;;39.98;36.11;101479.94;5054539;28;20414;-73
2022/09/03 07:21:16;;;;;;;13.97;8.33;;;;;;;39.69;36.25;101485.72;5053655;28;20453;-73
2022/09/03 07:23:43;;;;;;;18.27;9.90;;;;;;;40.13;36.17;101486.97;5054148;28;20410;-74
2022/09/03 07:26:19;;;;;;;18.93;8.00;;;;;;;40.05;36.41;101493.16;5052010;28;20422;-78
2022/09/03 07:28:46;;;;;;;24.67;9.03;;;;;;;40.22;36.06;101495.22;5054433;28;20909;-81
2022/09/03 07:31:16;;;;;;;20.30;7.90;;;;;;;40.15;36.16;101509.22;5055784;28;20501;-71
2022/09/03 07:33:42;;;;;;;16.27;7.10;;;;;;;39.59;37.58;101504.91;5042414;28;20437;-74
2022/09/03 07:36:14;;;;;;;22.40;7.20;;;;;;;39.90;36.36;101512.44;5079987;28;20497;-73
2022/09/03 07:38:45;;;;;;;21.03;8.30;;;;;;;39.83;36.71;101512.88;5067156;28;20427;-71
2022/09/03 07:41:13;;;;;;;23.07;9.17;;;;;;;39.83;36.89;101506.63;5057937;28;20836;-70
2022/09/03 07:43:47;;;;;;;23.17;8.20;;;;;;;39.79;37.26;101516.53;5052332;28;20536;-72
2022/09/03 07:46:24;;;;;;;16.30;7.70;;;;;;;39.94;37.19;101516.19;5050888;28;20415;-76
2022/09/03 07:48:56;;;;;;;19.03;8.03;;;;;;;40.08;36.96;101519.69;5050604;28;20501;-74
2022/09/03 07:51:25;;;;;;;18.70;9.37;;;;;;;40.04;37.16;101518.72;5050564;28;20422;-74
2022/09/03 07:53:53;;;;;;;16.57;8.70;;;;;;;40.37;36.47;101522.03;5052795;28;20426;-73
2022/09/03 07:56:20;;;;;;;17.27;9.23;;;;;;;40.25;36.98;101519.84;5078145;28;20414;-72
2022/09/03 07:58:47;;;;;;;20.63;10.03;;;;;;;40.03;37.22;101523.31;5063033;28;20499;-72
2022/09/03 08:01:19;;;;;;;20.13;8.40;;;;;;;39.88;37.39;101526.34;5061124;28;20511;-72
2022/09/03 08:03:48;;;;;;;17.47;10.47;;;;;;;40.20;36.93;101533.56;5072314;28;20898;-72
2022/09/03 08:06:15;;;;;;;14.60;8.13;;;;;;;40.33;36.67;101531.09;5050153;28;20489;-73
2022/09/03 08:08:44;;;;;;;18.13;9.70;;;;;;;40.39;36.64;101538.03;5050458;28;20407;-72
2022/09/03 08:11:12;;;;;;;16.23;8.80;;;;;;;40.14;36.82;101531.25;5540731;22;20565;-74
2022/09/03 08:13:43;;;;;;;19.30;8.97;;;;;;;40.11;37.35;101543.56;5049728;28;20438;-73
2022/09/03 08:16:11;;;;;;;28.80;10.00;;;;;;;40.36;37.17;101536.75;5046273;28;21039;-73
2022/09/03 08:18:38;;;;;;;15.53;7.53;;;;;;;40.46;37.28;101539.22;5049959;28;20418;-74
2022/09/03 08:21:15;;;;;;;24.50;8.60;;;;;;;40.50;37.20;101534.78;5036574;28;20478;-74
2022/09/03 08:23:44;;;;;;;23.63;12.33;;;;;;;40.45;37.06;101531.34;5036491;28;20882;-75
2022/09/03 08:26:11;;;;;;;15.97;7.97;;;;;;;40.58;37.29;101536.00;5050258;28;20480;-78
2022/09/03 08:28:38;;;;;;;14.33;8.30;;;;;;;40.75;36.26;101514.34;5049711;28;20422;-74
2022/09/03 08:31:11;;;;;;;16.27;7.47;;;;;;;40.94;36.00;101521.50;5049534;28;20919;-75
2022/09/03 08:33:39;;;;;;;15.27;7.80;;;;;;;41.09;35.71;101512.97;5049584;28;20454;-75
2022/09/03 08:36:14;;;;;;;12.73;7.30;;;;;;;40.90;36.46;101518.63;5049688;28;20480;-74
2022/09/03 08:38:42;;;;;;;22.07;11.37;;;;;;;40.62;36.33;101523.38;5049948;28;20444;-76
2022/09/03 08:41:16;;;;;;;23.87;8.90;;;;;;;40.71;36.34;101526.97;5050835;28;20455;-75
2022/09/03 08:43:48;;;;;;;11.83;7.80;;;;;;;40.37;36.57;101515.78;5050935;28;20418;-74
2022/09/03 08:46:15;;;;;;;15.83;9.80;;;;;;;40.35;36.72;101520.75;5049512;28;20468;-74
2022/09/03 08:48:41;;;;;;;17.87;8.17;;;;;;;40.45;36.66;101525.91;5049710;28;20988;-74
2022/09/03 08:51:09;;;;;;;26.73;9.63;;;;;;;40.12;37.07;101528.84;5049343;28;20415;-74
2022/09/03 08:53:41;;;;;;;15.10;7.57;;;;;;;40.15;37.16;101522.03;5038668;28;20419;-74
2022/09/03 08:56:11;;;;;;;14.67;9.40;;;;;;;39.79;37.83;101527.38;5031499;28;20442;-74
2022/09/03 08:58:37;;;;;;;18.60;9.07;;;;;;;39.67;37.94;101509.69;5036694;28;20471;-74
2022/09/03 09:01:10;;;;;;;28.17;12.03;;;;;;;40.20;37.18;101514.53;5030461;28;21037;-74
2022/09/03 09:04:07;;;;;;;15.33;9.60;;;;;;;40.51;36.23;101527.44;5031103;28;20467;-73
2022/09/03 09:06:53;;;;;;;18.63;7.57;;;;;;;40.58;36.57;101522.41;5043192;28;20836;-73
2022/09/03 09:09:47;;;;;;;29.60;8.90;;;;;;;40.43;36.49;101520.00;5030158;28;20454;-73
2022/09/03 09:12:29;;;;;;;13.73;6.13;;;;;;;40.52;36.26;101521.72;5028960;28;20479;-73
2022/09/03 09:15:34;;;;;;;23.27;9.60;;;;;;;40.26;36.66;101528.81;5034543;28;20481;-73
2022/09/03 09:18:15;;;;;;;26.67;10.47;;;;;;;40.08;36.33;101527.03;5044772;28;20426;-73
2022/09/03 09:20:49;;;;;;;15.87;6.53;;;;;;;40.32;35.60;101526.78;5047033;28;20466;-72
2022/09/03 09:23:28;;;;;;;16.03;6.00;;;;;;;39.70;36.64;101529.97;5049034;28;20495;-72
2022/09/03 09:25:56;;;;;;;10.60;6.60;;;;;;;39.77;36.74;101533.09;5034587;28;20483;-73
2022/09/03 09:28:34;;;;;;;11.90;6.43;;;;;;;40.06;36.76;101534.72;5054253;28;20458;-73
2022/09/03 09:31:03;;;;;;;16.50;7.70;;;;;;;39.75;36.97;101532.59;5036879;28;20454;-73
2022/09/03 09:33:33;;;;;;;10.60;6.63;;;;;;;39.85;36.54;101526.16;5053027;28;20418;-74
2022/09/03 09:36:05;;;;;;;18.50;8.93;;;;;;;39.50;37.52;101533.88;5052740;28;20450;-73
2022/09/03 09:38:36;;;;;;;17.97;6.43;;;;;;;39.68;37.14;101538.44;5052851;28;20523;-74
2022/09/03 09:41:19;;;;;;;10.53;5.63;;;;;;;39.90;36.93;101545.06;5032639;28;20474;-73
2022/09/03 09:43:48;;;;;;;19.97;11.40;;;;;;;40.33;36.45;101544.69;5053860;28;20423;-74
2022/09/03 09:46:20;;;;;;;15.67;7.00;;;;;;;40.26;36.74;101534.25;5052507;28;20484;-73
2022/09/03 09:48:48;;;;;;;16.77;7.53;;;;;;;40.12;36.89;101549.78;5051962;28;20446;-73
2022/09/03 09:51:23;;;;;;;13.90;8.37;;;;;;;40.45;36.38;101556.63;5052417;28;20538;-73
2022/09/03 09:54:20;;;;;;;17.60;7.30;;;;;;;40.52;36.09;101548.91;5052437;28;20433;-73
2022/09/03 09:56:58;;;;;;;14.50;8.03;;;;;;;40.98;35.75;101541.56;5046022;28;20434;-73
2022/09/03 09:59:24;;;;;;;16.83;8.00;;;;;;;40.66;35.96;101546.13;5049927;28;20509;-73
2022/09/03 10:01:50;;;;;;;24.37;6.60;;;;;;;40.64;36.17;101532.03;5044596;28;20522;-74
2022/09/03 10:04:30;;;;;;;14.30;6.90;;;;;;;40.76;35.93;101531.44;5047975;28;20458;-73
2022/09/03 10:07:06;;;;;;;22.27;8.97;;;;;;;41.00;35.34;101528.44;5043225;28;20415;-74
2022/09/03 10:09:33;;;;;;;12.20;7.70;;;;;;;41.02;34.87;101527.03;5052024;28;20445;-73
2022/09/03 10:12:05;;;;;;;16.50;8.17;;;;;;;41.21;33.85;101523.25;5039089;28;20529;-73
2022/09/03 10:14:49;;;;;;;17.50;7.93;;;;;;;40.87;34.94;101516.47;5034763;28;20455;-73
2022/09/03 10:17:59;;;;;;;15.30;7.30;;;;;;;41.23;34.46;101521.81;5051937;28;20469;-75
2022/09/03 10:20:31;;;;;;;16.60;7.47;;;;;;;41.19;34.45;101518.16;5008286;28;20430;-74
2022/09/03 10:23:15;;;;;;;12.00;5.37;;;;;;;40.89;34.61;101518.91;5053232;28;20466;-74
2022/09/03 10:25:41;;;;;;;20.40;10.40;;;;;;;40.82;34.97;101524.78;5051673;28;20446;-76
2022/09/03 10:28:09;;;;;;;16.60;6.67;;;;;;;41.11;34.17;101524.31;5053343;28;20480;-74
2022/09/03 10:30:55;;;;;;;13.13;7.10;;;;;;;41.01;34.49;101527.34;5051600;28;20445;-74
2022/09/03 10:34:02;;;;;;;11.70;5.83;;;;;;;40.90;34.99;101528.69;5051805;28;20429;-74
2022/09/03 10:36:39;;;;;;;21.13;9.23;;;;;;;41.24;34.26;101528.06;5048445;28;20457;-74
2022/09/03 10:39:21;;;;;;;14.70;6.63;;;;;;;41.26;33.62;101523.94;5047990;28;20419;-74
2022/09/03 10:42:01;;;;;;;16.50;7.20;;;;;;;41.34;34.10;101520.47;5039899;28;20456;-74
2022/09/03 10:44:35;;;;;;;20.30;9.20;;;;;;;41.47;33.62;101509.78;5034467;28;20423;-73
2022/09/03 10:47:04;;;;;;;11.23;6.40;;;;;;;41.22;33.98;101511.25;5061499;28;20419;-73
2022/09/03 10:49:49;;;;;;;19.00;6.17;;;;;;;41.49;34.03;101507.53;5044059;28;20449;-73
2022/09/03 10:52:30;;;;;;;19.53;6.23;;;;;;;41.52;33.53;101496.03;5045943;28;20419;-73
2022/09/03 10:55:11;;;;;;;16.63;7.80;;;;;;;41.21;34.25;101499.56;5051259;28;20505;-73
2022/09/03 10:57:55;;;;;;;17.00;7.30;;;;;;;41.16;34.20;101493.47;5040658;28;20811;-73
2022/09/03 11:00:22;;;;;;;19.47;8.40;;;;;;;41.06;34.21;101489.06;5034064;28;20419;-73
2022/09/03 11:03:11;;;;;;;15.00;9.00;;;;;;;41.42;34.51;101482.69;5033637;28;21274;-74
2022/09/03 11:06:23;;;;;;;14.90;8.27;;;;;;;41.16;34.85;101477.94;5031883;28;21651;-75
2022/09/03 11:09:42;;;;;;;24.33;8.20;;;;;;;41.31;34.69;101472.06;5029272;28;20435;-73
2022/09/03 11:12:20;;;;;;;14.80;6.73;;;;;;;41.34;33.98;101467.94;5008666;28;20470;-73
2022/09/03 11:15:11;;;;;;;18.30;6.97;;;;;;;41.19;34.42;101471.03;5032234;28;20443;-73
2022/09/03 11:17:45;;;;;;;19.53;7.30;;;;;;;41.41;33.85;101472.91;5029921;28;20432;-75
2022/09/03 11:20:22;;;;;;;22.63;7.17;;;;;;;41.64;33.21;101463.53;5046676;28;20426;-74
2022/09/03 11:22:53;;;;;;;15.97;7.30;;;;;;;41.53;33.85;101464.94;5041517;28;20458;-73
2022/09/03 11:25:32;;;;;;;20.47;6.70;;;;;;;41.92;32.86;101460.53;5050123;28;20422;-73
2022/09/03 11:27:58;;;;;;;11.40;5.97;;;;;;;42.01;32.73;101455.88;5049973;28;20443;-73
2022/09/03 11:30:36;;;;;;;20.30;10.13;;;;;;;41.95;33.05;101454.44;5049218;28;20437;-73
2022/09/03 11:33:09;;;;;;;18.57;8.13;;;;;;;41.96;33.22;101456.03;5048538;28;20426;-73
2022/09/03 11:35:40;;;;;;;29.43;12.67;;;;;;;41.74;33.40;101455.09;5047485;28;20805;-74
2022/09/03 11:38:15;;;;;;;25.90;10.40;;;;;;;42.13;32.63;101453.31;5049868;28;20426;-72
2022/09/03 11:41:26;;;;;;;17.00;7.33;;;;;;;41.94;32.45;101450.13;5046206;28;20442;-73
2022/09/03 11:43:53;;;;;;;16.20;7.80;;;;;;;41.98;32.40;101442.88;5047927;28;20480;-73
2022/09/03 11:46:25;;;;;;;18.10;8.93;;;;;;;42.04;32.71;101444.34;5052299;28;20806;-72